KSVN/SVN METAR and TAF weather

Enter ICAO airport designator
Station Type Date Time Source
KSVN METAR 2019/12/07 04:56 UTC NOAA

KSVN 070456Z AUTO 00000KT 10SM OVC110 12/08 A3015 RMK AO2 SLP213 T01150084 402190043 $


Station Type Date Time Source
KSVN Decoded METAR 2019/12/07 04:56 UTC NOAA

Hunter U. S. Army Airfield , GA, United States (KSVN) 32-01N 081-09W
Dec 06, 2019 - 11:56 PM EST / 2019.12.07 0456 UTC
Wind: Calm:0
Visibility: 10 mile(s):0
Sky conditions: overcast
Temperature: 52.7 F (11.5 C)
Dew Point: 47.1 F (8.4 C)
Relative Humidity: 81%
Pressure (altimeter): 30.15 in. Hg (1020 hPa)
ob: KSVN 070456Z AUTO 00000KT 10SM OVC110 12/08 A3015 RMK AO2 SLP213 T01150084 402190043
cycle: 5

Station Type Date Time Source
KSVN TAF 2019/12/07 05:06 UTC NOAA

TAF KSVN 070500Z 0705/0811 VRB06KT 9999 BKN100 QNH3014INS
BECMG 0717/0718 06010G15KT 9999 BKN050 QNH3020INS TX16/0720Z TN08/0712Z

Example: see airport list